KYIP/YIP METAR and TAF weather

Enter ICAO airport designator
Station Type Date Time Source
KYIP METAR 2019/12/06 08:53 UTC NOAA

KYIP 060853Z 22008KT 10SM OVC100 04/M01 A2991 RMK AO2 SLP131 T00441006 58015


Station Type Date Time Source
KYIP Decoded METAR 2019/12/06 08:53 UTC NOAA

WILLOW RUN AIRPORT, MI, United States (KYIP) 42-14N 083-32W 215M
Dec 06, 2019 - 03:53 AM EST / 2019.12.06 0853 UTC
Wind: from the SW (220 degrees) at 9 MPH (8 KT):0
Visibility: 10 mile(s):0
Sky conditions: overcast
Temperature: 39.9 F (4.4 C)
Dew Point: 30.9 F (-0.6 C)
Relative Humidity: 69%
Pressure (altimeter): 29.91 in. Hg (1012 hPa)
Pressure tendency: 0.04 inches (1.5 hPa) lower than three hours ago
ob: KYIP 060853Z 22008KT 10SM OVC100 04/M01 A2991 RMK AO2 SLP131 T00441006 58015
cycle: 9

Station Type Date Time Source
KYIP TAF 2019/12/06 06:30 UTC NOAA

TAF KYIP 060528Z 0606/0706 20005KT P6SM SCT040 OVC080
FM061300 30008KT P6SM BKN025 OVC040
FM061600 33013G20KT P6SM BKN025
FM062200 33013KT P6SM SCT025

Example: see airport list